Time;durP1;ratioP1;P1;durP2;ratioP2;P2;SDS_P1;SDS_P2;PMS_P1;PMS_P2;Temp;Humidity;BMP_temperature;BMP_pressure;BME280_temperature;BME280_humidity;BME280_pressure;Samples;Min_cycle;Max_cycle;Signal;HPM_P1;HPM_P2
2022/03/16 00:01:50;;;;;;;70.72;42.50;;;6.60;97.70;;;;;;5020452;28;20038;-74
2022/03/16 00:04:16;;;;;;;70.75;42.40;;;6.60;97.60;;;;;;5027395;28;20040;-75
2022/03/16 00:06:41;;;;;;;66.32;42.00;;;6.50;97.90;;;;;;5027813;28;20048;-74
2022/03/16 00:09:07;;;;;;;69.70;45.85;;;6.40;97.80;;;;;;5019342;28;20030;-75
2022/03/16 00:11:33;;;;;;;71.43;43.50;;;6.50;97.80;;;;;;5029938;28;20109;-74
2022/03/16 00:13:59;;;;;;;66.10;43.72;;;6.50;97.60;;;;;;5030910;28;20041;-74
2022/03/16 00:16:25;;;;;;;72.55;43.03;;;6.50;97.70;;;;;;5028175;28;20048;-74
2022/03/16 00:18:51;;;;;;;64.32;41.70;;;6.50;97.70;;;;;;5028185;28;20104;-74
2022/03/16 00:21:16;;;;;;;70.85;43.17;;;6.50;97.60;;;;;;5029742;28;20034;-74
2022/03/16 00:23:42;;;;;;;72.95;45.08;;;6.50;97.70;;;;;;5032153;28;20030;-74
2022/03/16 00:26:07;;;;;;;78.78;46.50;;;6.50;97.70;;;;;;5032334;28;20538;-74
2022/03/16 00:28:34;;;;;;;63.83;40.28;;;6.50;97.70;;;;;;5030116;28;20044;-74
2022/03/16 00:31:02;;;;;;;74.25;44.03;;;6.50;97.60;;;;;;5031544;28;20040;-74
2022/03/16 00:33:28;;;;;;;72.93;45.72;;;6.50;97.60;;;;;;5026288;28;20032;-74
2022/03/16 00:35:53;;;;;;;76.20;42.97;;;6.60;97.50;;;;;;5024948;28;20037;-74
2022/03/16 00:38:19;;;;;;;70.07;43.97;;;6.60;97.40;;;;;;5031440;28;20032;-74
2022/03/16 00:40:45;;;;;;;69.20;43.38;;;6.70;97.40;;;;;;5031834;28;20029;-74
2022/03/16 00:43:10;;;;;;;71.68;44.00;;;6.70;97.10;;;;;;5030691;28;20067;-74
2022/03/16 00:45:36;;;;;;;69.15;40.05;;;6.70;97.10;;;;;;5030518;28;20433;-74
2022/03/16 00:48:02;;;;;;;68.70;43.63;;;6.60;97.30;;;;;;5027438;28;20033;-74
2022/03/16 00:50:28;;;;;;;70.32;43.50;;;6.40;97.50;;;;;;5031406;28;20045;-74
2022/03/16 00:52:53;;;;;;;74.82;43.85;;;6.40;97.80;;;;;;5030043;28;20737;-74
2022/03/16 00:55:20;;;;;;;70.63;41.58;;;6.50;97.70;;;;;;5031462;28;20030;-75
2022/03/16 00:57:45;;;;;;;79.03;48.72;;;6.40;97.70;;;;;;5031563;28;20026;-74
2022/03/16 01:00:12;;;;;;;74.88;44.53;;;6.60;97.50;;;;;;5031726;28;20029;-74
2022/03/16 01:02:38;;;;;;;74.25;44.72;;;6.70;97.30;;;;;;5028563;28;20076;-74
2022/03/16 01:05:04;;;;;;;80.05;45.47;;;6.60;97.20;;;;;;5030310;28;20080;-74
2022/03/16 01:07:30;;;;;;;73.95;43.53;;;6.70;97.20;;;;;;5031335;28;20106;-74
2022/03/16 01:09:56;;;;;;;73.10;43.33;;;6.70;97.20;;;;;;5027201;28;20511;-74
2022/03/16 01:12:21;;;;;;;66.03;41.95;;;6.70;97.20;;;;;;5029500;28;20036;-74
2022/03/16 01:14:47;;;;;;;72.45;44.75;;;6.70;97.20;;;;;;5028739;28;20017;-74
2022/03/16 01:17:13;;;;;;;68.60;42.50;;;6.50;97.30;;;;;;5031101;28;20033;-74
2022/03/16 01:19:38;;;;;;;68.80;41.67;;;6.30;97.70;;;;;;5030333;28;20055;-74
2022/03/16 01:22:05;;;;;;;72.88;44.00;;;6.50;97.50;;;;;;5031512;28;20029;-74
2022/03/16 01:24:31;;;;;;;67.63;41.55;;;6.60;97.30;;;;;;5030698;28;20040;-74
2022/03/16 01:26:57;;;;;;;78.07;44.08;;;6.50;97.40;;;;;;5030187;28;20072;-74
2022/03/16 01:29:26;;;;;;;74.28;43.40;;;6.50;97.50;;;;;;5029602;28;20125;-74
2022/03/16 01:31:53;;;;;;;72.50;42.65;;;6.40;97.40;;;;;;5030334;28;20376;-74
2022/03/16 01:34:19;;;;;;;70.57;44.20;;;6.40;97.50;;;;;;5021335;28;20459;-74
2022/03/16 01:36:45;;;;;;;72.32;43.65;;;6.50;97.30;;;;;;5031644;28;20057;-74
2022/03/16 01:39:10;;;;;;;72.07;43.35;;;6.60;97.20;;;;;;5030480;28;20043;-74
2022/03/16 01:41:36;;;;;;;77.88;43.53;;;6.60;97.20;;;;;;5030528;28;20057;-74
2022/03/16 01:44:02;;;;;;;70.50;44.03;;;6.40;97.40;;;;;;5021052;28;20030;-74
2022/03/16 01:46:28;;;;;;;66.78;42.97;;;6.40;97.50;;;;;;5029684;28;20034;-74
2022/03/16 01:48:53;;;;;;;73.22;43.45;;;6.30;97.60;;;;;;5028529;28;20045;-74
2022/03/16 01:51:23;;;;;;;72.45;42.33;;;6.30;97.70;;;;;;5030251;28;20072;-74
2022/03/16 01:53:49;;;;;;;71.47;43.33;;;6.30;97.60;;;;;;5029460;28;20044;-74
2022/03/16 01:56:16;;;;;;;70.70;43.63;;;6.20;97.60;;;;;;5029937;28;20080;-74
2022/03/16 01:58:42;;;;;;;72.72;42.78;;;6.10;97.90;;;;;;5027505;28;20029;-74
2022/03/16 02:01:08;;;;;;;69.95;43.28;;;6.00;98.10;;;;;;5027045;28;20396;-74
2022/03/16 02:03:34;;;;;;;69.85;44.25;;;6.20;98.00;;;;;;5029169;28;20033;-74
2022/03/16 02:06:00;;;;;;;75.75;43.50;;;6.20;97.80;;;;;;5030284;28;20029;-74
2022/03/16 02:08:36;;;;;;;73.68;43.53;;;6.00;97.90;;;;;;5029945;28;20083;-74
2022/03/16 02:11:02;;;;;;;69.13;43.35;;;6.00;98.30;;;;;;5029539;28;20435;-74
2022/03/16 02:13:27;;;;;;;73.57;41.78;;;6.00;98.30;;;;;;5029001;28;20025;-74
2022/03/16 02:15:53;;;;;;;78.68;43.95;;;6.00;98.30;;;;;;5031354;28;20171;-74
2022/03/16 02:18:19;;;;;;;69.90;41.00;;;6.00;98.50;;;;;;5025391;28;20039;-74
2022/03/16 02:20:49;;;;;;;73.75;45.30;;;6.00;98.10;;;;;;5027891;28;20123;-74
2022/03/16 02:23:15;;;;;;;77.32;45.97;;;6.10;98.10;;;;;;5028493;28;20033;-74
2022/03/16 02:25:49;;;;;;;73.22;43.83;;;6.10;98.00;;;;;;5031223;28;20037;-74
2022/03/16 02:28:14;;;;;;;77.13;44.00;;;5.90;98.10;;;;;;5029437;28;20053;-74
2022/03/16 02:30:42;;;;;;;76.43;44.75;;;5.90;98.50;;;;;;5027836;28;20110;-74
2022/03/16 02:33:07;;;;;;;73.90;44.28;;;5.90;98.40;;;;;;5028623;28;20049;-74
2022/03/16 02:35:33;;;;;;;69.15;43.50;;;5.90;98.50;;;;;;5026997;28;20038;-74
2022/03/16 02:37:59;;;;;;;73.40;44.33;;;5.90;98.50;;;;;;5020397;28;20039;-74
2022/03/16 02:40:25;;;;;;;70.53;42.85;;;5.90;98.60;;;;;;5029506;28;20037;-74
2022/03/16 02:42:51;;;;;;;72.20;43.65;;;5.80;98.70;;;;;;5019564;28;20037;-74
2022/03/16 02:45:17;;;;;;;75.40;44.10;;;5.60;98.70;;;;;;5030566;28;20042;-74
2022/03/16 02:47:44;;;;;;;75.03;44.33;;;5.70;98.90;;;;;;5029415;28;20060;-74
2022/03/16 02:50:12;;;;;;;74.43;44.85;;;5.70;98.80;;;;;;5029434;28;20041;-74
2022/03/16 02:52:38;;;;;;;71.25;43.10;;;5.70;98.80;;;;;;5026593;28;20048;-74
2022/03/16 02:55:06;;;;;;;69.35;43.90;;;5.60;98.90;;;;;;5028769;28;20041;-74
2022/03/16 02:57:32;;;;;;;75.28;44.60;;;5.70;99.10;;;;;;5029251;28;20104;-74
2022/03/16 02:59:58;;;;;;;74.25;45.38;;;5.60;99.00;;;;;;5029643;28;20033;-74
2022/03/16 03:02:23;;;;;;;80.28;45.22;;;5.60;99.10;;;;;;5027578;28;20523;-74
2022/03/16 03:04:49;;;;;;;74.93;42.13;;;5.60;99.10;;;;;;5030184;28;20116;-74
2022/03/16 03:07:14;;;;;;;69.80;42.35;;;5.50;99.30;;;;;;5025417;28;20384;-74
2022/03/16 03:09:40;;;;;;;72.68;44.17;;;5.40;99.30;;;;;;5016957;28;20072;-74
2022/03/16 03:12:06;;;;;;;68.55;42.00;;;5.30;99.70;;;;;;5021475;28;20069;-74
2022/03/16 03:14:32;;;;;;;76.57;46.55;;;5.40;99.70;;;;;;5024427;28;20064;-74
2022/03/16 03:16:59;;;;;;;73.20;43.67;;;5.30;99.50;;;;;;5024728;28;20449;-74
2022/03/16 03:19:25;;;;;;;72.00;43.40;;;5.50;99.40;;;;;;5024386;28;20029;-74
2022/03/16 03:21:51;;;;;;;69.97;44.75;;;5.50;99.40;;;;;;5023333;28;20039;-74
2022/03/16 03:24:17;;;;;;;74.35;45.90;;;5.60;99.20;;;;;;5027531;28;20144;-74
2022/03/16 03:26:42;;;;;;;71.95;45.67;;;5.50;99.30;;;;;;5025168;28;20368;-74
2022/03/16 03:29:08;;;;;;;77.97;44.67;;;5.30;99.80;;;;;;5028416;28;20083;-74
2022/03/16 03:31:34;;;;;;;76.07;43.33;;;5.40;99.60;;;;;;5026538;28;20720;-74
2022/03/16 03:34:01;;;;;;;78.38;44.45;;;5.30;99.50;;;;;;5026513;28;20036;-74
2022/03/16 03:36:27;;;;;;;81.72;44.85;;;5.20;99.90;;;;;;5027346;28;20085;-74
2022/03/16 03:38:53;;;;;;;66.97;43.95;;;5.30;99.70;;;;;;5027799;28;20029;-74
2022/03/16 03:41:18;;;;;;;79.13;43.80;;;5.40;99.50;;;;;;5027648;28;20073;-74
2022/03/16 03:43:44;;;;;;;77.45;44.95;;;5.30;99.70;;;;;;5026655;28;20029;-73
2022/03/16 03:46:10;;;;;;;72.18;43.75;;;5.40;99.60;;;;;;5028711;28;20100;-74
2022/03/16 03:48:36;;;;;;;70.70;42.25;;;5.40;99.40;;;;;;5023466;28;20117;-74
2022/03/16 03:51:02;;;;;;;71.53;43.50;;;5.20;99.70;;;;;;5023965;28;20116;-74
2022/03/16 03:53:27;;;;;;;80.65;46.28;;;5.10;99.90;;;;;;5027939;28;20560;-74
2022/03/16 03:55:53;;;;;;;74.35;43.70;;;5.30;99.90;;;;;;5028826;28;20065;-73
2022/03/16 03:58:19;;;;;;;74.20;43.38;;;5.30;99.90;;;;;;5027141;28;20384;-74
2022/03/16 04:00:44;;;;;;;75.10;45.33;;;5.40;99.70;;;;;;5023384;28;20085;-72
2022/03/16 04:03:10;;;;;;;74.65;43.88;;;5.50;99.30;;;;;;5025133;28;20022;-72
2022/03/16 04:05:35;;;;;;;81.53;45.50;;;5.50;99.30;;;;;;5025630;28;20029;-73
2022/03/16 04:08:01;;;;;;;69.43;43.60;;;5.40;99.50;;;;;;5024610;28;20039;-72
2022/03/16 04:10:27;;;;;;;75.40;45.00;;;5.20;99.50;;;;;;5019186;28;20053;-72
2022/03/16 04:12:53;;;;;;;72.85;43.55;;;5.30;99.70;;;;;;5019140;28;20034;-72
2022/03/16 04:15:20;;;;;;;71.10;44.05;;;5.20;99.70;;;;;;5022116;28;20031;-73
2022/03/16 04:17:46;;;;;;;74.55;43.92;;;5.20;99.70;;;;;;5017825;28;20079;-72
2022/03/16 04:20:12;;;;;;;77.32;44.72;;;5.30;99.50;;;;;;5025165;28;20057;-72
2022/03/16 04:22:37;;;;;;;70.68;44.90;;;5.10;99.40;;;;;;5023569;28;20029;-72
2022/03/16 04:25:04;;;;;;;67.63;43.28;;;5.20;99.70;;;;;;5020915;28;20795;-72
2022/03/16 04:27:30;;;;;;;76.13;46.60;;;5.30;99.50;;;;;;5022650;28;20049;-72
2022/03/16 04:29:56;;;;;;;72.57;44.85;;;5.30;99.70;;;;;;5010552;28;20048;-73
2022/03/16 04:32:21;;;;;;;74.50;45.97;;;5.30;99.60;;;;;;5018474;28;20537;-72
2022/03/16 04:34:47;;;;;;;69.30;42.35;;;5.20;99.80;;;;;;5016597;28;20112;-72
2022/03/16 04:37:13;;;;;;;74.05;46.05;;;5.20;99.70;;;;;;5011086;28;20684;-72
2022/03/16 04:39:38;;;;;;;75.60;43.58;;;5.20;99.80;;;;;;5021398;28;20068;-73
2022/03/16 04:42:05;;;;;;;73.50;45.20;;;5.20;99.90;;;;;;5017562;28;20034;-72
2022/03/16 04:44:30;;;;;;;80.93;46.80;;;5.20;99.80;;;;;;5021078;28;20037;-72
2022/03/16 04:46:56;;;;;;;69.72;42.55;;;5.20;99.70;;;;;;5021990;28;20896;-72
2022/03/16 04:49:22;;;;;;;76.25;44.83;;;5.10;99.90;;;;;;5025248;28;20033;-72
2022/03/16 04:51:47;;;;;;;83.72;46.17;;;5.00;99.90;;;;;;5018656;28;20038;-72
2022/03/16 04:54:14;;;;;;;69.32;42.30;;;5.00;99.90;;;;;;5025715;28;20040;-72
2022/03/16 04:56:40;;;;;;;80.30;44.28;;;4.90;99.90;;;;;;5023454;28;20459;-72
2022/03/16 04:59:06;;;;;;;71.68;43.38;;;5.10;99.90;;;;;;5025314;28;20065;-72
2022/03/16 05:01:32;;;;;;;73.15;42.97;;;5.10;99.90;;;;;;5015071;28;20569;-72
2022/03/16 05:03:58;;;;;;;81.32;45.90;;;5.20;99.90;;;;;;5022507;28;20037;-72
2022/03/16 05:06:23;;;;;;;69.95;44.25;;;5.30;99.90;;;;;;5020039;28;20093;-72
2022/03/16 05:08:50;;;;;;;77.47;44.58;;;5.20;99.90;;;;;;5016395;28;20021;-72
2022/03/16 05:11:17;;;;;;;75.05;44.45;;;5.20;99.90;;;;;;5010410;28;20036;-72
2022/03/16 05:13:43;;;;;;;75.88;44.75;;;5.20;99.80;;;;;;5012327;28;20045;-72
2022/03/16 05:16:09;;;;;;;75.80;44.05;;;5.00;99.90;;;;;;5009859;28;20032;-73
2022/03/16 05:18:35;;;;;;;74.30;43.47;;;5.00;99.90;;;;;;5016668;28;20037;-72
2022/03/16 05:21:03;;;;;;;75.70;44.03;;;5.00;99.90;;;;;;5019395;28;20419;-73
2022/03/16 05:23:30;;;;;;;73.60;45.33;;;5.00;99.90;;;;;;5009151;28;21192;-73
2022/03/16 05:25:56;;;;;;;71.13;43.22;;;5.10;99.90;;;;;;5013610;28;20037;-72
2022/03/16 05:28:22;;;;;;;70.68;44.10;;;5.10;99.90;;;;;;5012971;28;20041;-73
2022/03/16 05:30:48;;;;;;;78.75;45.53;;;5.10;99.90;;;;;;5007204;28;20037;-73
2022/03/16 05:33:14;;;;;;;73.70;42.20;;;5.10;99.90;;;;;;5009397;28;20086;-72
2022/03/16 05:35:41;;;;;;;69.43;41.30;;;5.00;99.90;;;;;;5020506;28;20120;-73
2022/03/16 05:38:08;;;;;;;73.65;45.95;;;4.80;99.90;;;;;;5006185;28;20215;-73
2022/03/16 05:40:34;;;;;;;67.85;44.42;;;4.90;99.90;;;;;;5009302;28;20566;-73
2022/03/16 05:43:00;;;;;;;74.35;42.53;;;4.80;99.90;;;;;;5011215;28;20041;-73
2022/03/16 05:45:25;;;;;;;73.60;44.35;;;4.90;99.90;;;;;;5009608;28;20435;-72
2022/03/16 05:47:51;;;;;;;77.22;43.47;;;4.90;99.90;;;;;;5005489;28;20041;-73
2022/03/16 05:50:18;;;;;;;77.18;42.63;;;4.80;99.90;;;;;;5021334;28;20092;-72
2022/03/16 05:52:46;;;;;;;73.35;41.22;;;4.90;99.90;;;;;;5011147;28;20096;-72
2022/03/16 05:55:13;;;;;;;76.97;44.60;;;5.00;99.90;;;;;;5012318;28;20056;-72
2022/03/16 05:57:40;;;;;;;72.30;45.05;;;5.10;99.90;;;;;;5015909;28;20033;-72
2022/03/16 06:00:14;;;;;;;67.15;42.47;;;5.20;99.90;;;;;;5009831;28;20407;-71
2022/03/16 06:02:41;;;;;;;70.38;43.88;;;5.00;99.90;;;;;;5010137;28;20061;-73
2022/03/16 06:05:07;;;;;;;75.90;43.42;;;5.00;99.90;;;;;;5009562;28;20659;-72
2022/03/16 06:07:33;;;;;;;73.60;43.55;;;5.20;99.90;;;;;;5011368;28;20432;-73
2022/03/16 06:09:59;;;;;;;73.93;43.90;;;5.30;99.90;;;;;;5014722;28;20136;-73
2022/03/16 06:12:25;;;;;;;71.07;40.78;;;5.40;99.90;;;;;;5014395;28;20807;-72
2022/03/16 06:14:51;;;;;;;71.95;41.75;;;5.50;99.50;;;;;;5012598;28;20113;-72
2022/03/16 06:17:17;;;;;;;67.47;39.30;;;5.50;99.40;;;;;;5014647;28;20229;-73
2022/03/16 06:19:42;;;;;;;68.90;42.58;;;5.60;99.40;;;;;;5006956;28;20064;-73
2022/03/16 06:22:08;;;;;;;67.75;39.97;;;5.60;99.40;;;;;;5011545;28;20104;-73
2022/03/16 06:24:33;;;;;;;68.07;39.80;;;5.50;99.40;;;;;;5015933;28;20288;-73
2022/03/16 06:26:59;;;;;;;68.40;40.42;;;5.70;99.20;;;;;;5012617;28;20087;-72
2022/03/16 06:29:25;;;;;;;78.07;42.50;;;5.60;99.30;;;;;;5019231;28;20874;-72
2022/03/16 06:31:50;;;;;;;73.22;42.38;;;5.50;99.40;;;;;;5022189;28;20488;-74
2022/03/16 06:34:16;;;;;;;67.07;41.03;;;5.60;99.40;;;;;;5024639;28;20033;-73
2022/03/16 06:36:42;;;;;;;70.00;42.60;;;5.60;99.30;;;;;;5023652;28;20053;-72
2022/03/16 06:39:07;;;;;;;70.75;42.15;;;5.70;99.20;;;;;;5014136;28;20029;-72
2022/03/16 06:41:33;;;;;;;68.63;40.40;;;5.70;99.20;;;;;;5017771;28;20041;-72
2022/03/16 06:43:58;;;;;;;65.57;40.40;;;5.80;99.20;;;;;;5022013;28;20095;-72
2022/03/16 06:46:24;;;;;;;68.95;42.60;;;5.70;99.20;;;;;;5021676;28;20033;-72
2022/03/16 06:48:50;;;;;;;66.80;42.22;;;5.60;99.30;;;;;;5022188;28;20029;-72
2022/03/16 06:51:15;;;;;;;73.10;41.78;;;5.70;99.50;;;;;;5022070;28;20049;-72
2022/03/16 06:53:41;;;;;;;67.38;41.58;;;5.70;99.30;;;;;;5023139;28;20041;-72
2022/03/16 06:56:07;;;;;;;66.88;40.25;;;5.90;98.90;;;;;;5022638;28;20069;-72
2022/03/16 06:58:33;;;;;;;67.93;41.20;;;6.00;99.20;;;;;;5019793;28;20476;-72
2022/03/16 07:00:58;;;;;;;78.78;44.72;;;6.00;99.20;;;;;;5022231;28;20136;-72
2022/03/16 07:03:24;;;;;;;67.10;41.63;;;6.00;99.20;;;;;;5021258;28;20041;-72
2022/03/16 07:05:50;;;;;;;65.57;41.72;;;6.00;99.20;;;;;;5022022;28;20029;-72
2022/03/16 07:08:15;;;;;;;67.22;41.35;;;6.10;98.80;;;;;;5020776;28;20033;-72
2022/03/16 07:10:42;;;;;;;71.35;43.47;;;6.20;98.70;;;;;;5021052;28;20077;-72
2022/03/16 07:13:10;;;;;;;73.90;41.25;;;6.20;98.40;;;;;;5021892;28;20045;-72
2022/03/16 07:15:41;;;;;;;69.53;38.97;;;6.20;98.20;;;;;;5020808;28;20087;-72
2022/03/16 07:18:06;;;;;;;64.05;40.10;;;6.40;98.20;;;;;;5007689;28;20582;-72
2022/03/16 07:20:32;;;;;;;67.45;41.47;;;6.50;97.70;;;;;;5011909;28;20046;-72
2022/03/16 07:23:05;;;;;;;77.00;42.53;;;6.40;98.40;;;;;;5013230;28;20101;-72
2022/03/16 07:25:31;;;;;;;67.13;39.88;;;6.30;98.90;;;;;;5009057;28;20087;-72
2022/03/16 07:27:57;;;;;;;66.70;41.90;;;6.20;98.80;;;;;;5012633;28;20423;-71
2022/03/16 07:30:23;;;;;;;68.45;42.40;;;6.20;98.70;;;;;;5021042;28;20033;-72
2022/03/16 07:32:48;;;;;;;66.45;41.38;;;6.40;98.80;;;;;;5022238;28;20048;-72
2022/03/16 07:35:14;;;;;;;73.45;43.08;;;6.40;99.00;;;;;;5021959;28;20042;-72
2022/03/16 07:37:42;;;;;;;65.72;41.30;;;6.40;99.00;;;;;;5020737;28;20029;-72
2022/03/16 07:40:08;;;;;;;67.30;41.47;;;6.50;98.80;;;;;;5008285;28;20033;-72
2022/03/16 07:42:35;;;;;;;62.97;40.45;;;6.50;98.70;;;;;;5006459;28;20156;-72
2022/03/16 07:45:01;;;;;;;64.90;40.63;;;6.50;98.40;;;;;;5013315;28;20029;-72
2022/03/16 07:47:26;;;;;;;68.22;42.17;;;6.80;98.10;;;;;;5012670;28;20047;-72
2022/03/16 07:49:53;;;;;;;65.13;37.67;;;6.80;98.50;;;;;;5021877;28;20061;-72
2022/03/16 07:52:20;;;;;;;63.63;41.33;;;6.70;98.10;;;;;;5021936;28;20048;-72
2022/03/16 07:54:45;;;;;;;66.10;41.78;;;6.50;98.60;;;;;;5021513;28;20033;-72
2022/03/16 07:57:11;;;;;;;74.68;41.90;;;6.70;98.30;;;;;;5022092;28;20415;-72
2022/03/16 07:59:37;;;;;;;65.75;40.90;;;6.60;97.80;;;;;;5020559;28;20434;-72
2022/03/16 08:02:03;;;;;;;69.53;40.28;;;6.70;97.50;;;;;;5016164;28;20499;-72
2022/03/16 08:04:28;;;;;;;67.03;39.95;;;6.80;97.60;;;;;;5021054;28;20083;-72
2022/03/16 08:06:54;;;;;;;65.32;39.80;;;6.90;98.10;;;;;;5021699;28;20651;-72
2022/03/16 08:09:20;;;;;;;68.10;41.05;;;6.90;97.60;;;;;;5022486;28;20041;-72
2022/03/16 08:11:45;;;;;;;69.03;40.70;;;7.00;97.60;;;;;;5025518;28;20037;-72
2022/03/16 08:14:12;;;;;;;68.07;42.15;;;7.00;97.00;;;;;;5020513;28;20048;-72
2022/03/16 08:16:38;;;;;;;68.75;40.75;;;7.00;97.00;;;;;;5021152;28;20666;-72
2022/03/16 08:19:04;;;;;;;64.20;39.08;;;7.00;96.90;;;;;;5025060;28;20156;-71
2022/03/16 08:21:29;;;;;;;71.00;43.88;;;7.10;96.90;;;;;;5023204;28;20132;-72
2022/03/16 08:23:55;;;;;;;71.70;41.47;;;7.20;97.20;;;;;;5023432;28;20034;-72
2022/03/16 08:26:21;;;;;;;69.20;42.05;;;7.30;97.20;;;;;;5024740;28;20136;-72
2022/03/16 08:28:47;;;;;;;67.82;40.42;;;7.40;96.70;;;;;;5025084;28;20044;-72
2022/03/16 08:31:14;;;;;;;61.72;37.67;;;7.50;96.80;;;;;;5024460;28;20043;-72
2022/03/16 08:33:41;;;;;;;64.15;40.85;;;7.50;96.30;;;;;;5024309;28;20041;-72
2022/03/16 08:36:08;;;;;;;65.18;40.08;;;7.60;96.40;;;;;;5024083;28;20041;-72
2022/03/16 08:38:37;;;;;;;63.80;39.40;;;7.60;95.90;;;;;;5025403;28;20357;-72
2022/03/16 08:41:07;;;;;;;66.72;41.53;;;7.60;95.90;;;;;;5016855;28;20108;-71
2022/03/16 08:43:34;;;;;;;65.43;40.75;;;7.80;95.60;;;;;;5025429;28;20037;-72
2022/03/16 08:46:00;;;;;;;60.75;38.92;;;7.90;95.60;;;;;;5024312;28;20057;-72
2022/03/16 08:48:26;;;;;;;64.82;39.88;;;7.60;95.60;;;;;;5024483;28;20033;-72
2022/03/16 08:50:52;;;;;;;65.95;40.35;;;7.70;95.70;;;;;;5024585;28;20090;-72
2022/03/16 08:53:18;;;;;;;68.85;41.58;;;7.80;95.30;;;;;;5024469;28;20399;-72
2022/03/16 08:55:43;;;;;;;63.13;36.95;;;8.00;95.10;;;;;;5023952;28;20029;-72
2022/03/16 08:58:09;;;;;;;67.32;43.30;;;8.10;94.80;;;;;;5026757;28;20049;-72
2022/03/16 09:00:35;;;;;;;70.80;40.80;;;8.20;94.80;;;;;;5026447;28;20519;-72
2022/03/16 09:03:03;;;;;;;66.30;42.33;;;8.30;95.10;;;;;;5026718;28;20561;-72
2022/03/16 09:05:29;;;;;;;64.90;40.28;;;8.30;95.40;;;;;;5026843;28;20566;-72
2022/03/16 09:07:54;;;;;;;66.28;41.22;;;8.30;95.40;;;;;;5024880;28;20105;-72
2022/03/16 09:10:20;;;;;;;70.72;40.35;;;8.40;95.70;;;;;;5024041;28;20147;-72
2022/03/16 09:12:46;;;;;;;66.10;42.28;;;8.50;95.20;;;;;;5027813;28;20131;-72
2022/03/16 09:15:12;;;;;;;66.22;41.22;;;8.50;95.30;;;;;;5027382;28;20029;-72
2022/03/16 09:17:38;;;;;;;68.10;41.20;;;8.60;95.10;;;;;;5027787;28;20069;-72
2022/03/16 09:20:05;;;;;;;68.18;41.53;;;8.60;94.70;;;;;;5027597;28;20040;-72
2022/03/16 09:22:31;;;;;;;71.25;39.47;;;8.70;94.70;;;;;;5027069;28;20124;-72
2022/03/16 09:24:56;;;;;;;66.40;40.70;;;8.80;94.30;;;;;;5026960;28;20124;-72
2022/03/16 09:27:24;;;;;;;63.38;38.97;;;8.80;94.30;;;;;;5028291;28;20065;-72
2022/03/16 09:29:49;;;;;;;72.57;41.95;;;8.80;94.40;;;;;;5025886;28;20419;-72
2022/03/16 09:32:15;;;;;;;67.95;43.05;;;8.90;94.20;;;;;;5026539;28;20119;-72
2022/03/16 09:34:42;;;;;;;66.15;39.67;;;8.90;94.50;;;;;;5023722;28;20028;-72
2022/03/16 09:37:09;;;;;;;61.40;38.70;;;9.10;94.00;;;;;;5026950;28;20064;-72
2022/03/16 09:39:36;;;;;;;70.63;42.35;;;9.00;93.60;;;;;;5025801;28;20026;-72
2022/03/16 09:42:03;;;;;;;66.20;38.95;;;9.20;94.10;;;;;;5016941;28;20025;-72
2022/03/16 09:44:30;;;;;;;62.90;41.95;;;9.50;93.80;;;;;;5027350;28;20034;-72
2022/03/16 09:46:57;;;;;;;65.30;40.30;;;9.40;93.60;;;;;;5027528;28;20041;-72
2022/03/16 09:49:23;;;;;;;67.53;41.60;;;9.40;93.10;;;;;;5026991;28;20086;-72
2022/03/16 09:51:53;;;;;;;62.63;39.75;;;9.50;93.10;;;;;;5026524;28;20108;-72
2022/03/16 09:54:20;;;;;;;60.22;39.60;;;9.60;93.30;;;;;;5026285;28;20037;-72
2022/03/16 09:56:47;;;;;;;63.97;38.10;;;9.80;93.20;;;;;;5025114;28;20053;-72
2022/03/16 09:59:13;;;;;;;62.17;39.65;;;9.70;92.90;;;;;;5024654;28;20060;-72
2022/03/16 10:01:42;;;;;;;62.35;39.17;;;9.80;92.70;;;;;;5025614;28;20057;-72
2022/03/16 10:04:07;;;;;;;63.65;41.92;;;9.80;92.70;;;;;;5025931;28;20521;-72
2022/03/16 10:06:37;;;;;;;67.03;41.78;;;9.70;92.70;;;;;;5026695;28;20116;-72
2022/03/16 10:15:18;;;;;;;65.00;40.35;;;10.20;92.80;;;;;;5020628;28;20435;-72
2022/03/16 10:17:48;;;;;;;73.13;42.25;;;10.30;92.40;;;;;;5021774;28;20033;-72
2022/03/16 10:20:36;;;;;;;68.60;41.45;;;10.20;92.40;;;;;;5026807;28;20026;-72
2022/03/16 10:23:20;;;;;;;69.97;43.22;;;10.30;92.20;;;;;;5026604;28;20025;-72
2022/03/16 10:25:46;;;;;;;65.72;41.15;;;10.40;92.10;;;;;;5026685;28;20101;-72
2022/03/16 10:28:12;;;;;;;60.65;41.72;;;10.30;91.70;;;;;;5026512;28;20045;-72
2022/03/16 10:30:39;;;;;;;66.93;40.38;;;10.30;91.90;;;;;;5024497;28;20061;-72
2022/03/16 10:33:05;;;;;;;67.63;41.53;;;10.20;91.90;;;;;;5023306;28;20111;-72
2022/03/16 10:35:33;;;;;;;61.42;39.90;;;10.30;91.40;;;;;;5026252;28;20069;-72
2022/03/16 10:38:10;;;;;;;62.60;40.63;;;10.20;91.70;;;;;;5025887;28;20094;-72
2022/03/16 10:40:36;;;;;;;65.78;39.30;;;10.40;91.70;;;;;;5025824;28;20033;-72
2022/03/16 10:48:58;;;;;;;63.13;41.35;;;10.60;91.30;;;;;;5024674;28;20079;-72
2022/03/16 10:51:24;;;;;;;79.13;45.67;;;10.70;91.20;;;;;;5020237;28;20033;-72
2022/03/16 10:53:52;;;;;;;73.43;43.28;;;10.80;91.30;;;;;;5026286;28;20426;-72
2022/03/16 10:56:19;;;;;;;64.93;40.97;;;11.10;91.40;;;;;;5026441;28;20048;-72
2022/03/16 10:58:52;;;;;;;65.43;41.20;;;10.90;90.70;;;;;;5026061;28;20037;-72
2022/03/16 11:01:19;;;;;;;64.32;44.53;;;10.90;90.90;;;;;;5025565;28;20799;-72
2022/03/16 11:03:48;;;;;;;65.68;43.72;;;11.10;91.00;;;;;;5025628;28;20029;-72
2022/03/16 11:06:14;;;;;;;67.00;41.42;;;11.20;90.80;;;;;;5024119;28;20028;-72
2022/03/16 11:08:41;;;;;;;70.38;41.60;;;11.30;91.20;;;;;;5024124;28;20487;-72
2022/03/16 11:13:55;;;;;;;64.80;42.22;;;11.40;90.60;;;;;;5014445;28;20068;-72
2022/03/16 11:16:21;;;;;;;59.92;37.22;;;11.40;90.50;;;;;;5026032;28;20036;-72
2022/03/16 11:18:51;;;;;;;58.92;38.85;;;11.40;90.30;;;;;;5025766;28;21083;-72
2022/03/16 11:21:23;;;;;;;62.08;39.45;;;11.50;90.50;;;;;;5025465;28;20385;-72
2022/03/16 11:26:36;;;;;;;;;;;11.90;90.00;;;;;;5026813;28;20467;-72
2022/03/16 11:29:08;;;;;;;60.38;38.25;;;12.00;89.70;;;;;;5025847;28;20295;-72
2022/03/16 11:31:34;;;;;;;68.28;41.22;;;12.10;89.50;;;;;;5025397;28;20538;-72
2022/03/16 11:34:08;;;;;;;64.22;41.25;;;12.10;89.50;;;;;;5026427;28;20034;-72
2022/03/16 11:36:40;;;;;;;59.53;39.47;;;11.90;89.90;;;;;;5025886;28;20037;-72
2022/03/16 11:39:21;;;;;;;60.80;40.83;;;12.10;89.80;;;;;;5023493;28;20037;-72
2022/03/16 11:41:56;;;;;;;64.28;40.72;;;12.20;89.70;;;;;;5023119;28;20028;-72
2022/03/16 11:44:25;;;;;;;63.13;39.92;;;12.50;88.70;;;;;;5026051;28;20029;-72
2022/03/16 11:46:52;;;;;;;64.15;40.88;;;12.50;88.70;;;;;;5028859;28;20050;-72
2022/03/16 11:49:28;;;;;;;56.72;39.15;;;12.60;88.70;;;;;;5029314;28;20152;-72
2022/03/16 11:52:00;;;;;;;60.75;37.75;;;12.40;88.00;;;;;;5029196;28;20101;-72
2022/03/16 11:54:48;;;;;;;57.88;37.55;;;12.40;87.80;;;;;;5028713;28;20041;-72
2022/03/16 11:57:50;;;;;;;56.45;36.20;;;12.40;87.90;;;;;;5024439;28;20065;-72
2022/03/16 12:00:17;;;;;;;62.45;38.78;;;12.50;88.10;;;;;;5028744;28;20099;-72
2022/03/16 12:02:54;;;;;;;61.58;37.42;;;12.80;87.80;;;;;;5029072;28;20168;-72
2022/03/16 12:05:22;;;;;;;56.25;38.83;;;12.90;87.10;;;;;;5028995;28;20121;-72
2022/03/16 12:08:11;;;;;;;59.35;37.53;;;13.00;87.30;;;;;;5029068;28;20483;-72
2022/03/16 12:10:46;;;;;;;56.33;38.28;;;13.00;85.50;;;;;;5029081;28;20104;-72
2022/03/16 12:13:15;;;;;;;62.35;37.88;;;13.10;87.50;;;;;;5026132;28;20040;-72
2022/03/16 12:15:42;;;;;;;51.88;34.97;;;13.20;86.40;;;;;;5029159;28;20039;-72
2022/03/16 12:18:14;;;;;;;60.95;38.05;;;13.20;86.70;;;;;;5028566;28;20038;-72
2022/03/16 12:20:44;;;;;;;55.42;35.28;;;13.20;85.60;;;;;;5029150;28;20572;-72
2022/03/16 12:23:23;;;;;;;55.13;36.50;;;13.00;85.40;;;;;;5028568;28;20045;-72
2022/03/16 12:25:50;;;;;;;58.80;34.10;;;13.20;86.70;;;;;;5026436;28;20668;-72
2022/03/16 12:31:18;;;;;;;56.45;36.92;;;13.40;85.10;;;;;;5027461;28;20147;-71
2022/03/16 12:33:48;;;;;;;55.78;36.13;;;13.30;85.60;;;;;;5023316;28;20037;-71
2022/03/16 12:36:16;;;;;;;53.60;35.60;;;13.40;86.70;;;;;;5021199;28;20036;-71
2022/03/16 12:38:47;;;;;;;63.33;36.45;;;13.50;86.00;;;;;;5025215;28;20369;-70
2022/03/16 12:44:01;;;;;;;55.97;36.83;;;13.40;86.10;;;;;;5022307;28;20053;-70
2022/03/16 12:46:33;;;;;;;52.45;34.17;;;13.60;86.40;;;;;;5007430;28;20041;-71
2022/03/16 12:49:12;;;;;;;57.40;37.00;;;13.50;85.90;;;;;;5018971;28;20025;-71
2022/03/16 12:51:48;;;;;;;53.10;36.25;;;13.60;85.80;;;;;;5017395;28;20515;-71
2022/03/16 12:54:21;;;;;;;54.33;37.45;;;13.80;85.90;;;;;;5024597;28;20025;-71
2022/03/16 12:56:51;;;;;;;58.20;36.75;;;14.00;86.00;;;;;;5024284;28;20036;-71
2022/03/16 12:59:22;;;;;;;55.65;37.15;;;13.80;84.90;;;;;;5023739;28;20040;-70